Time;durP1;ratioP1;P1;durP2;ratioP2;P2;SDS_P1;SDS_P2;PMS_P1;PMS_P2;Temp;Humidity;BMP_temperature;BMP_pressure;BME280_temperature;BME280_humidity;BME280_pressure;Samples;Min_cycle;Max_cycle;Signal;HPM_P1;HPM_P2
2022/04/01 00:00:45;;;;;;;22.27;12.05;;;6.20;87.20;;;;;;5136470;27;20198;-56
2022/04/01 00:03:12;;;;;;;23.30;12.48;;;6.20;86.90;;;;;;5136231;27;20205;-56
2022/04/01 00:05:40;;;;;;;21.77;11.68;;;6.30;86.90;;;;;;5135950;27;20370;-57
2022/04/01 00:08:09;;;;;;;21.30;11.05;;;6.30;86.80;;;;;;5136050;27;20209;-57
2022/04/01 00:10:36;;;;;;;20.63;11.05;;;6.30;86.60;;;;;;5135402;27;20616;-57
2022/04/01 00:13:03;;;;;;;24.27;11.52;;;6.30;86.80;;;;;;5135790;27;20281;-57
2022/04/01 00:15:31;;;;;;;26.23;13.95;;;6.30;86.70;;;;;;5136009;27;20203;-57
2022/04/01 00:17:58;;;;;;;22.35;12.38;;;6.30;86.40;;;;;;5134692;27;20203;-57
2022/04/01 00:20:25;;;;;;;24.40;12.88;;;6.30;86.50;;;;;;5135854;27;20209;-57
2022/04/01 00:22:53;;;;;;;21.15;12.02;;;6.30;86.40;;;;;;5135722;27;20247;-57
2022/04/01 00:25:21;;;;;;;21.63;11.90;;;6.30;86.50;;;;;;5135757;27;20333;-56
2022/04/01 00:27:50;;;;;;;21.50;11.65;;;6.30;86.40;;;;;;5134481;27;20195;-57
2022/04/01 00:30:17;;;;;;;20.52;10.90;;;6.30;86.50;;;;;;5135561;27;20240;-56
2022/04/01 00:32:44;;;;;;;26.80;14.18;;;6.30;86.60;;;;;;5135547;27;20675;-56
2022/04/01 00:35:11;;;;;;;21.83;11.35;;;6.30;86.50;;;;;;5135845;27;20202;-57
2022/04/01 00:37:38;;;;;;;26.50;12.23;;;6.30;86.60;;;;;;5135355;27;20225;-57
2022/04/01 00:40:09;;;;;;;24.13;13.50;;;6.30;86.60;;;;;;5135525;27;20660;-56
2022/04/01 00:42:38;;;;;;;25.48;12.68;;;6.30;86.70;;;;;;5134247;27;20210;-57
2022/04/01 00:45:06;;;;;;;31.35;14.05;;;6.30;86.70;;;;;;5135156;27;20265;-57
2022/04/01 00:47:33;;;;;;;18.73;10.98;;;6.30;86.70;;;;;;5135363;27;20198;-56
2022/04/01 00:49:59;;;;;;;26.13;13.50;;;6.20;86.50;;;;;;5135295;27;20258;-57
2022/04/01 00:52:26;;;;;;;25.98;13.70;;;6.20;87.10;;;;;;5135070;27;20602;-57
2022/04/01 00:54:53;;;;;;;25.10;13.43;;;6.20;87.10;;;;;;5135238;27;20246;-58
2022/04/01 00:57:21;;;;;;;21.33;11.88;;;6.30;87.00;;;;;;5133843;27;20293;-57
2022/04/01 00:59:50;;;;;;;20.80;12.45;;;6.30;87.10;;;;;;5135119;27;20260;-57
2022/04/01 01:02:17;;;;;;;23.45;11.45;;;6.30;87.00;;;;;;5134956;27;20198;-58
2022/04/01 01:04:44;;;;;;;18.67;10.65;;;6.30;87.00;;;;;;5134854;27;20236;-57
2022/04/01 01:07:11;;;;;;;23.10;12.38;;;6.30;87.00;;;;;;5134927;27;20203;-57
2022/04/01 01:09:38;;;;;;;25.77;12.20;;;6.30;87.10;;;;;;5134942;27;20252;-57
2022/04/01 01:12:06;;;;;;;19.50;11.15;;;6.40;87.00;;;;;;5133584;27;20209;-57
2022/04/01 01:14:36;;;;;;;24.00;12.10;;;6.40;86.90;;;;;;5134880;27;20207;-57
2022/04/01 01:17:07;;;;;;;20.80;11.45;;;6.40;87.00;;;;;;5134747;27;20244;-57
2022/04/01 01:19:34;;;;;;;22.42;12.52;;;6.40;86.80;;;;;;5134689;27;20202;-57
2022/04/01 01:22:01;;;;;;;19.35;12.13;;;6.40;86.80;;;;;;5134582;27;20206;-59
2022/04/01 01:24:33;;;;;;;17.83;10.52;;;6.40;86.40;;;;;;5134552;27;20226;-57
2022/04/01 01:27:01;;;;;;;20.38;10.80;;;6.40;86.10;;;;;;5133413;27;20203;-59
2022/04/01 01:29:29;;;;;;;19.50;11.45;;;6.30;86.10;;;;;;5134228;27;20697;-57
2022/04/01 01:31:59;;;;;;;18.70;10.50;;;6.20;86.80;;;;;;5134518;27;20285;-57
2022/04/01 01:34:27;;;;;;;20.83;11.43;;;6.10;86.70;;;;;;5134411;27;20202;-57
2022/04/01 01:36:54;;;;;;;21.95;12.20;;;6.10;87.40;;;;;;5134197;27;20714;-56
2022/04/01 01:39:22;;;;;;;17.45;10.82;;;6.20;87.30;;;;;;5134209;27;20199;-57
2022/04/01 01:41:53;;;;;;;17.40;9.57;;;6.20;86.80;;;;;;5132927;27;20215;-57
2022/04/01 01:44:21;;;;;;;17.02;9.65;;;6.20;86.90;;;;;;5134233;27;20465;-57
2022/04/01 01:46:48;;;;;;;18.00;10.93;;;6.20;86.80;;;;;;5134293;27;20289;-57
2022/04/01 01:49:15;;;;;;;18.08;10.68;;;6.20;86.50;;;;;;5134178;27;20779;-57
2022/04/01 01:54:44;;;;;;;18.50;10.27;;;6.30;86.30;;;;;;5112567;27;20198;-56
2022/04/01 01:57:15;;;;;;;17.67;9.75;;;6.30;85.60;;;;;;5132771;27;20209;-57
2022/04/01 01:59:42;;;;;;;17.58;10.60;;;6.20;85.80;;;;;;5134182;27;20293;-56
2022/04/01 02:02:09;;;;;;;18.45;11.13;;;6.20;85.90;;;;;;5134205;27;20695;-57
2022/04/01 02:04:36;;;;;;;21.52;12.30;;;6.20;86.00;;;;;;5133903;27;20321;-57
2022/04/01 02:07:04;;;;;;;19.20;10.57;;;6.10;85.90;;;;;;5133775;27;20202;-56
2022/04/01 02:09:31;;;;;;;22.23;11.85;;;6.10;86.00;;;;;;5133901;27;20289;-57
2022/04/01 02:11:58;;;;;;;17.00;9.85;;;6.20;85.90;;;;;;5132757;27;20221;-56
2022/04/01 02:14:26;;;;;;;17.75;11.35;;;6.20;85.80;;;;;;5134004;27;20217;-56
2022/04/01 02:16:53;;;;;;;18.90;11.10;;;6.10;85.70;;;;;;5133917;27;20560;-58
2022/04/01 02:19:22;;;;;;;20.50;11.63;;;6.10;85.60;;;;;;5133759;27;20225;-56
2022/04/01 02:21:50;;;;;;;18.92;10.18;;;6.00;85.70;;;;;;5133687;27;20222;-57
2022/04/01 02:24:18;;;;;;;16.02;10.38;;;6.10;85.80;;;;;;5133666;27;20698;-58
2022/04/01 02:26:47;;;;;;;24.85;12.52;;;6.00;85.90;;;;;;5132546;27;20203;-57
2022/04/01 02:29:14;;;;;;;22.02;12.02;;;5.90;86.10;;;;;;5133635;27;20210;-58
2022/04/01 02:31:43;;;;;;;21.08;12.50;;;5.90;86.10;;;;;;5133764;27;20202;-57
2022/04/01 02:34:10;;;;;;;19.48;11.25;;;6.00;86.30;;;;;;5133738;27;20202;-56
2022/04/01 02:36:37;;;;;;;21.88;12.75;;;6.00;86.00;;;;;;5133495;27;20668;-57
2022/04/01 02:39:05;;;;;;;18.85;11.05;;;6.00;86.00;;;;;;5133691;27;20198;-57
2022/04/01 02:41:32;;;;;;;19.80;11.07;;;5.90;86.00;;;;;;5134996;27;20194;-56
2022/04/01 02:44:09;;;;;;;21.25;11.75;;;5.90;86.10;;;;;;5137575;27;20202;-56
2022/04/01 02:46:36;;;;;;;18.80;10.48;;;5.90;86.10;;;;;;5137639;27;20233;-59
2022/04/01 02:49:06;;;;;;;21.10;12.13;;;5.80;86.20;;;;;;5137599;27;20653;-57
2022/04/01 02:51:36;;;;;;;21.65;11.55;;;5.70;86.80;;;;;;5137394;27;20202;-57
2022/04/01 02:54:04;;;;;;;23.55;12.43;;;5.70;87.40;;;;;;5137759;27;20238;-57
2022/04/01 02:56:32;;;;;;;25.70;12.98;;;5.70;87.30;;;;;;5136173;27;20199;-57
2022/04/01 02:58:59;;;;;;;23.58;12.00;;;5.70;86.90;;;;;;5137534;27;20201;-58
2022/04/01 03:01:26;;;;;;;21.10;11.80;;;5.70;87.20;;;;;;5137325;27;20202;-57
2022/04/01 03:03:53;;;;;;;24.20;12.60;;;5.70;86.70;;;;;;5137372;27;20203;-57
2022/04/01 03:06:21;;;;;;;23.35;12.68;;;5.60;87.10;;;;;;5137305;27;20321;-57
2022/04/01 03:08:49;;;;;;;26.05;13.43;;;5.50;87.50;;;;;;5137143;27;20209;-57
2022/04/01 03:11:16;;;;;;;24.58;12.85;;;5.50;87.50;;;;;;5135788;27;20209;-57
2022/04/01 03:13:43;;;;;;;33.45;14.50;;;5.60;87.50;;;;;;5137219;27;20203;-57
2022/04/01 03:16:10;;;;;;;29.50;13.25;;;5.60;87.30;;;;;;5137163;27;20245;-57
2022/04/01 03:18:40;;;;;;;44.60;16.13;;;5.60;87.10;;;;;;5137041;27;20285;-57
2022/04/01 03:21:08;;;;;;;26.58;14.23;;;5.60;87.10;;;;;;5137144;27;20267;-57
2022/04/01 03:23:38;;;;;;;27.65;14.75;;;5.70;87.10;;;;;;5136704;27;20198;-56
2022/04/01 03:26:05;;;;;;;23.52;13.05;;;5.60;87.40;;;;;;5135627;27;20230;-57
2022/04/01 03:28:32;;;;;;;33.25;15.38;;;5.60;87.80;;;;;;5136923;27;20195;-57
2022/04/01 03:30:59;;;;;;;56.72;15.20;;;5.70;87.30;;;;;;5136817;27;20309;-57
2022/04/01 03:33:26;;;;;;;64.30;15.43;;;5.60;86.80;;;;;;5136782;27;20209;-57
2022/04/01 03:35:53;;;;;;;158.90;26.17;;;5.50;86.80;;;;;;5136723;27;20202;-58
2022/04/01 03:38:20;;;;;;;130.55;24.30;;;5.40;87.50;;;;;;5136425;27;20254;-57
2022/04/01 03:40:51;;;;;;;30.83;13.90;;;5.40;87.70;;;;;;5135233;27;20263;-57
2022/04/01 03:43:18;;;;;;;69.45;16.98;;;5.40;87.70;;;;;;5136690;27;20251;-57
2022/04/01 03:45:48;;;;;;;37.63;15.32;;;5.40;87.70;;;;;;5136599;27;20256;-56
2022/04/01 03:48:21;;;;;;;32.58;15.15;;;5.30;87.30;;;;;;5136536;27;20206;-58
2022/04/01 03:50:50;;;;;;;28.67;14.20;;;5.20;87.70;;;;;;5136334;27;20256;-57
2022/04/01 03:53:23;;;;;;;28.10;14.38;;;5.10;88.00;;;;;;5136068;27;20293;-57
2022/04/01 03:55:53;;;;;;;30.42;14.02;;;5.10;88.20;;;;;;5135299;27;20298;-58
2022/04/01 03:58:29;;;;;;;27.95;13.20;;;5.00;88.20;;;;;;5136304;27;20207;-57
2022/04/01 04:00:58;;;;;;;23.92;12.45;;;5.00;88.40;;;;;;5136403;27;20198;-57
2022/04/01 04:03:25;;;;;;;24.67;11.50;;;4.90;88.20;;;;;;5136164;27;20294;-58
2022/04/01 04:05:53;;;;;;;20.73;12.23;;;4.80;88.80;;;;;;5136343;27;20241;-57
2022/04/01 04:08:22;;;;;;;27.25;13.25;;;4.80;88.80;;;;;;5136040;27;20297;-57
2022/04/01 04:10:51;;;;;;;23.40;13.43;;;4.70;89.00;;;;;;5134813;27;20618;-58
2022/04/01 04:13:19;;;;;;;25.58;12.82;;;4.80;89.10;;;;;;5136072;27;20544;-56
2022/04/01 04:15:52;;;;;;;27.02;12.43;;;4.80;89.00;;;;;;5135844;27;20207;-58
2022/04/01 04:18:20;;;;;;;22.63;11.48;;;4.90;88.70;;;;;;5136029;27;20199;-54
2022/04/01 04:21:07;;;;;;;26.08;13.15;;;4.90;88.40;;;;;;5135750;27;20720;-57
2022/04/01 04:23:43;;;;;;;25.10;12.55;;;4.80;88.50;;;;;;5135786;27;20201;-57
2022/04/01 04:26:15;;;;;;;25.58;10.98;;;4.70;88.50;;;;;;5134249;27;20222;-57
2022/04/01 04:28:49;;;;;;;24.38;12.32;;;4.60;89.30;;;;;;5135866;27;20203;-56
2022/04/01 04:31:23;;;;;;;22.60;12.43;;;4.60;89.30;;;;;;5135429;27;20233;-56
2022/04/01 04:33:51;;;;;;;26.60;12.57;;;4.70;89.30;;;;;;5135665;27;20281;-56
2022/04/01 04:36:23;;;;;;;28.13;13.80;;;4.70;89.40;;;;;;5135616;27;20230;-56
2022/04/01 04:38:53;;;;;;;29.25;13.15;;;4.80;89.30;;;;;;5135296;27;20618;-56
2022/04/01 04:41:23;;;;;;;26.92;11.73;;;4.90;88.80;;;;;;5134207;27;20199;-58
2022/04/01 04:43:51;;;;;;;26.52;12.75;;;4.80;88.50;;;;;;5135471;27;20199;-57
2022/04/01 04:46:19;;;;;;;22.95;12.57;;;4.80;88.80;;;;;;5135288;27;20559;-59
2022/04/01 04:48:48;;;;;;;22.65;11.07;;;4.70;88.70;;;;;;5135295;27;20315;-56
2022/04/01 04:51:23;;;;;;;20.40;10.48;;;4.60;89.30;;;;;;5135235;27;20206;-56
2022/04/01 04:53:51;;;;;;;20.38;10.30;;;4.70;89.30;;;;;;5135208;27;20208;-55
2022/04/01 04:56:19;;;;;;;24.23;11.80;;;4.70;89.10;;;;;;5133930;27;20199;-57
2022/04/01 04:58:47;;;;;;;26.98;12.50;;;4.70;89.30;;;;;;5135147;27;20209;-56
2022/04/01 05:01:28;;;;;;;30.42;12.48;;;4.70;89.00;;;;;;5135028;27;20208;-57
2022/04/01 05:04:19;;;;;;;25.83;12.18;;;4.70;88.40;;;;;;5134368;27;20201;-56
2022/04/01 05:06:52;;;;;;;29.65;13.48;;;4.60;88.50;;;;;;5135070;27;20230;-56
2022/04/01 05:09:26;;;;;;;22.30;11.23;;;4.60;88.30;;;;;;5134908;27;20570;-56
2022/04/01 05:12:12;;;;;;;27.30;13.38;;;4.50;88.20;;;;;;5133676;27;20194;-56
2022/04/01 05:14:53;;;;;;;17.15;10.13;;;4.50;88.40;;;;;;5134882;27;20228;-58
2022/04/01 05:17:26;;;;;;;24.50;11.80;;;4.40;88.60;;;;;;5134790;27;20619;-56
2022/04/01 05:19:58;;;;;;;18.95;10.20;;;4.40;88.80;;;;;;5134738;27;20213;-56
2022/04/01 05:22:36;;;;;;;19.95;10.25;;;4.40;88.30;;;;;;5134573;27;20612;-56
2022/04/01 05:25:05;;;;;;;22.10;10.90;;;4.40;88.60;;;;;;5134643;27;20198;-56
2022/04/01 05:27:40;;;;;;;19.73;11.45;;;4.50;88.40;;;;;;5133206;27;20756;-56
2022/04/01 05:30:17;;;;;;;22.90;11.73;;;4.40;88.10;;;;;;5134393;27;20240;-56
2022/04/01 05:32:58;;;;;;;25.58;12.68;;;4.30;88.10;;;;;;5134517;27;20195;-56
2022/04/01 05:35:29;;;;;;;26.92;11.68;;;4.30;88.90;;;;;;5134304;27;20221;-57
2022/04/01 05:37:57;;;;;;;21.73;11.73;;;4.40;88.80;;;;;;5134222;27;20198;-56
2022/04/01 05:40:24;;;;;;;19.30;11.27;;;4.40;88.60;;;;;;5134277;27;20675;-57
2022/04/01 05:42:53;;;;;;;27.27;12.57;;;4.40;88.20;;;;;;5132975;27;20203;-56
2022/04/01 05:45:21;;;;;;;25.10;11.70;;;4.40;87.80;;;;;;5134073;27;20213;-56
2022/04/01 05:47:49;;;;;;;22.30;12.32;;;4.30;87.90;;;;;;5133995;27;20209;-55
2022/04/01 05:50:19;;;;;;;21.48;12.10;;;4.20;88.30;;;;;;5134143;27;20737;-56
2022/04/01 05:52:48;;;;;;;20.08;11.02;;;4.20;88.20;;;;;;5133886;27;20666;-57
2022/04/01 05:55:16;;;;;;;27.25;11.60;;;4.20;88.10;;;;;;5133985;27;20668;-56
2022/04/01 05:57:44;;;;;;;27.00;12.98;;;4.20;88.20;;;;;;5132600;27;20209;-56
2022/04/01 06:00:12;;;;;;;27.38;13.05;;;4.20;88.20;;;;;;5133968;27;20245;-56
2022/04/01 06:03:03;;;;;;;23.33;12.40;;;4.20;88.10;;;;;;5133928;27;20214;-56
2022/04/01 06:05:35;;;;;;;22.08;12.30;;;4.20;88.20;;;;;;5133807;27;20559;-56
2022/04/01 06:08:12;;;;;;;22.20;12.05;;;4.20;88.10;;;;;;5133729;27;20289;-56
2022/04/01 06:10:47;;;;;;;24.33;12.45;;;4.20;88.10;;;;;;5132823;27;20209;-56
2022/04/01 06:13:21;;;;;;;18.65;10.85;;;4.10;88.30;;;;;;5133918;27;20234;-56
2022/04/01 06:16:02;;;;;;;22.67;11.60;;;4.10;88.20;;;;;;5132792;27;20216;-56
2022/04/01 06:18:39;;;;;;;23.85;11.55;;;4.00;88.00;;;;;;5133668;27;20301;-57
2022/04/01 06:21:07;;;;;;;20.80;10.80;;;3.90;88.50;;;;;;5133530;27;20555;-56
2022/04/01 06:23:52;;;;;;;23.83;12.07;;;3.90;88.60;;;;;;5133576;27;20213;-56
2022/04/01 06:26:19;;;;;;;18.27;11.10;;;3.90;88.50;;;;;;5132562;27;20241;-56
2022/04/01 06:28:55;;;;;;;22.52;12.18;;;3.80;89.00;;;;;;5133561;27;20289;-56
2022/04/01 06:31:26;;;;;;;23.48;12.13;;;3.80;88.80;;;;;;5133309;27;20236;-56
2022/04/01 06:34:03;;;;;;;23.63;12.27;;;3.90;88.60;;;;;;5133696;27;20649;-56
2022/04/01 06:36:35;;;;;;;21.85;10.55;;;3.90;88.70;;;;;;5133564;27;20773;-57
2022/04/01 06:39:05;;;;;;;24.08;12.40;;;4.00;88.50;;;;;;5133511;27;20206;-56
2022/04/01 06:41:36;;;;;;;26.70;13.13;;;4.00;88.30;;;;;;5132148;27;20286;-56
2022/04/01 06:44:03;;;;;;;21.58;12.00;;;4.00;88.10;;;;;;5133455;27;20281;-56
2022/04/01 06:46:30;;;;;;;21.83;12.40;;;4.00;88.10;;;;;;5133448;27;20685;-56
2022/04/01 06:48:58;;;;;;;20.50;11.27;;;4.10;88.10;;;;;;5133463;27;20237;-56
2022/04/01 06:51:25;;;;;;;22.73;12.00;;;4.10;88.10;;;;;;5133422;27;20559;-56
2022/04/01 06:53:52;;;;;;;22.02;12.18;;;4.00;87.60;;;;;;5133246;27;20675;-56
2022/04/01 06:56:19;;;;;;;26.20;13.45;;;3.90;87.80;;;;;;5132141;27;20626;-56
2022/04/01 06:58:47;;;;;;;23.67;11.93;;;4.00;88.10;;;;;;5133411;27;20239;-56
2022/04/01 07:01:14;;;;;;;24.90;12.48;;;4.00;88.20;;;;;;5133447;27;20199;-56
2022/04/01 07:03:41;;;;;;;23.75;12.60;;;4.00;88.10;;;;;;5133445;27;20207;-56
2022/04/01 07:06:10;;;;;;;27.15;12.10;;;4.00;87.60;;;;;;5133284;27;20237;-56
2022/04/01 07:08:36;;;;;;;25.42;12.65;;;3.90;87.80;;;;;;5133233;27;20202;-57
2022/04/01 07:11:03;;;;;;;23.60;12.20;;;3.90;87.70;;;;;;5131964;27;20207;-56
2022/04/01 07:13:30;;;;;;;26.02;12.65;;;3.90;87.60;;;;;;5133259;27;20198;-56
2022/04/01 07:15:57;;;;;;;27.25;14.35;;;4.00;87.70;;;;;;5133179;27;20233;-57
2022/04/01 07:18:24;;;;;;;25.17;13.07;;;3.90;87.70;;;;;;5133231;27;20630;-56
2022/04/01 07:20:52;;;;;;;25.08;13.93;;;3.90;87.90;;;;;;5133212;27;20203;-57
2022/04/01 07:23:20;;;;;;;25.35;13.95;;;3.90;88.10;;;;;;5133080;27;20213;-57
2022/04/01 07:25:47;;;;;;;26.58;13.98;;;4.00;87.60;;;;;;5131663;27;20205;-56
2022/04/01 07:28:14;;;;;;;31.00;14.80;;;3.80;87.90;;;;;;5136503;27;20195;-56
2022/04/01 07:30:41;;;;;;;25.80;13.50;;;3.80;87.90;;;;;;5136625;27;20618;-57
2022/04/01 07:33:12;;;;;;;27.40;14.20;;;3.90;87.90;;;;;;5136763;27;20705;-57
2022/04/01 07:35:39;;;;;;;25.58;12.82;;;3.70;87.70;;;;;;5136639;27;20230;-56
2022/04/01 07:38:06;;;;;;;25.60;14.43;;;3.70;88.40;;;;;;5136369;27;20293;-56
2022/04/01 07:40:34;;;;;;;24.02;13.20;;;3.80;88.20;;;;;;5136414;27;20206;-57
2022/04/01 07:43:01;;;;;;;28.95;13.50;;;3.80;88.40;;;;;;5135765;27;20628;-56
2022/04/01 07:45:29;;;;;;;23.75;13.30;;;3.90;88.30;;;;;;5136446;27;20653;-56
2022/04/01 07:47:56;;;;;;;30.10;14.23;;;3.90;88.00;;;;;;5136340;27;20222;-57
2022/04/01 07:50:23;;;;;;;22.65;12.85;;;4.00;88.00;;;;;;5136363;27;20649;-56
2022/04/01 07:52:50;;;;;;;29.38;14.45;;;3.90;87.60;;;;;;5136070;27;20260;-57
2022/04/01 07:55:19;;;;;;;36.75;15.55;;;3.90;87.70;;;;;;5136397;27;20198;-57
2022/04/01 07:57:49;;;;;;;29.73;15.07;;;3.80;87.80;;;;;;5134982;27;20201;-58
2022/04/01 08:00:18;;;;;;;25.08;13.30;;;3.90;87.80;;;;;;5136172;27;20203;-57
2022/04/01 08:02:47;;;;;;;25.40;12.88;;;3.80;87.60;;;;;;5136327;27;20311;-57
2022/04/01 08:05:13;;;;;;;24.98;12.77;;;3.80;87.60;;;;;;5136137;27;20206;-56
2022/04/01 08:07:40;;;;;;;28.08;15.38;;;3.80;88.00;;;;;;5135878;27;20317;-57
2022/04/01 08:10:08;;;;;;;28.98;14.95;;;3.80;87.90;;;;;;5136217;27;20230;-56
2022/04/01 08:12:36;;;;;;;30.02;15.30;;;3.80;87.90;;;;;;5134532;27;20203;-57
2022/04/01 08:15:05;;;;;;;25.70;13.07;;;3.80;88.00;;;;;;5135885;27;20194;-56
2022/04/01 08:17:32;;;;;;;25.83;14.23;;;3.80;88.10;;;;;;5136101;27;20616;-57
2022/04/01 08:19:59;;;;;;;31.90;15.70;;;3.80;87.90;;;;;;5135732;27;20234;-56
2022/04/01 08:22:26;;;;;;;26.73;14.38;;;3.80;87.90;;;;;;5135836;27;20278;-57
2022/04/01 08:24:52;;;;;;;33.67;17.27;;;3.90;88.10;;;;;;5135475;27;20562;-57
2022/04/01 08:27:19;;;;;;;31.95;14.73;;;3.90;88.20;;;;;;5134273;27;20262;-56
2022/04/01 08:29:46;;;;;;;33.45;16.45;;;3.90;88.30;;;;;;5135394;27;20237;-56
2022/04/01 08:32:15;;;;;;;30.25;16.02;;;3.90;88.20;;;;;;5135764;27;20298;-56
2022/04/01 08:34:42;;;;;;;27.63;14.45;;;3.80;88.10;;;;;;5135272;27;20219;-58
2022/04/01 08:37:09;;;;;;;29.25;15.82;;;3.80;88.30;;;;;;5135633;27;20607;-56
2022/04/01 08:39:36;;;;;;;36.03;16.50;;;3.80;88.00;;;;;;5134296;27;20294;-57
2022/04/01 08:42:05;;;;;;;34.60;16.77;;;3.90;88.20;;;;;;5134165;27;20230;-56
2022/04/01 08:44:32;;;;;;;27.85;15.05;;;3.80;87.80;;;;;;5135313;27;20609;-57
2022/04/01 08:46:59;;;;;;;34.72;16.70;;;3.80;88.00;;;;;;5135026;27;20223;-58
2022/04/01 08:49:27;;;;;;;29.02;15.93;;;3.80;88.10;;;;;;5135211;27;20733;-57
2022/04/01 08:51:54;;;;;;;29.42;15.98;;;3.70;88.00;;;;;;5135299;27;20283;-56
2022/04/01 08:54:21;;;;;;;32.50;15.93;;;3.70;88.60;;;;;;5135078;27;20286;-57
2022/04/01 08:56:48;;;;;;;25.70;14.05;;;3.80;88.60;;;;;;5133931;27;20207;-56
2022/04/01 08:59:15;;;;;;;31.30;14.73;;;3.80;88.70;;;;;;5135058;27;20231;-58
2022/04/01 09:01:43;;;;;;;31.48;16.60;;;3.80;88.80;;;;;;5135049;27;20209;-56
2022/04/01 09:04:23;;;;;;;26.58;14.65;;;3.80;88.30;;;;;;5135039;27;20198;-56
2022/04/01 09:06:51;;;;;;;33.05;14.55;;;3.80;88.60;;;;;;5134873;27;20222;-57
2022/04/01 09:09:25;;;;;;;27.85;12.55;;;3.90;88.50;;;;;;5134752;27;20207;-58
2022/04/01 09:12:06;;;;;;;23.88;13.02;;;3.80;88.30;;;;;;5133486;27;20203;-56
2022/04/01 09:14:33;;;;;;;23.35;12.40;;;3.60;88.40;;;;;;5134726;27;20198;-56
2022/04/01 09:17:01;;;;;;;21.58;12.15;;;3.60;88.60;;;;;;5134754;27;20209;-58
2022/04/01 09:19:32;;;;;;;23.10;13.20;;;3.50;89.30;;;;;;5134704;27;20205;-56
2022/04/01 09:22:15;;;;;;;19.55;12.20;;;3.60;89.40;;;;;;5134563;27;20298;-58
2022/04/01 09:24:54;;;;;;;23.13;12.38;;;3.60;89.10;;;;;;5134412;27;20226;-57
2022/04/01 09:27:46;;;;;;;25.98;12.30;;;3.60;89.00;;;;;;5133299;27;20249;-56
2022/04/01 09:30:15;;;;;;;23.40;10.98;;;3.60;88.80;;;;;;5134384;27;20230;-57
2022/04/01 09:32:44;;;;;;;22.98;12.15;;;3.60;89.10;;;;;;5134624;27;20198;-58
2022/04/01 09:35:12;;;;;;;23.50;11.27;;;3.60;88.90;;;;;;5134495;27;20329;-56
2022/04/01 09:37:43;;;;;;;18.35;10.85;;;3.60;88.90;;;;;;5134432;27;20301;-57
2022/04/01 09:40:11;;;;;;;21.88;12.18;;;3.70;88.80;;;;;;5134353;27;20565;-58
2022/04/01 09:42:39;;;;;;;19.70;11.35;;;3.70;88.60;;;;;;5133102;27;20198;-57
2022/04/01 09:45:07;;;;;;;23.60;11.85;;;3.70;88.40;;;;;;5134350;27;20565;-56
2022/04/01 09:47:38;;;;;;;16.85;10.18;;;3.70;88.20;;;;;;5134057;27;20233;-56
2022/04/01 09:50:13;;;;;;;20.42;10.65;;;3.70;88.20;;;;;;5134137;27;20214;-57
2022/04/01 09:52:43;;;;;;;22.00;11.27;;;3.70;88.60;;;;;;5134133;27;20223;-56
2022/04/01 09:55:10;;;;;;;23.92;11.15;;;3.70;88.30;;;;;;5134063;27;20202;-56
2022/04/01 09:57:37;;;;;;;21.80;11.27;;;3.70;88.30;;;;;;5132827;27;20298;-58
2022/04/01 10:00:06;;;;;;;20.27;11.50;;;3.80;88.10;;;;;;5133958;27;20203;-57
2022/04/01 10:02:32;;;;;;;17.75;10.48;;;3.80;87.90;;;;;;5134010;27;20202;-56
2022/04/01 10:05:00;;;;;;;26.77;12.07;;;3.90;88.10;;;;;;5134002;27;20234;-56
2022/04/01 10:07:30;;;;;;;26.23;11.13;;;3.90;87.70;;;;;;5134052;27;20734;-57
2022/04/01 10:09:58;;;;;;;31.15;12.30;;;3.90;87.40;;;;;;5133859;27;20205;-56
2022/04/01 10:12:28;;;;;;;24.98;10.48;;;3.90;87.50;;;;;;5132548;27;20210;-56
2022/04/01 10:15:00;;;;;;;50.65;12.88;;;3.80;87.20;;;;;;5133954;27;20285;-57
2022/04/01 10:17:30;;;;;;;19.65;9.75;;;3.80;87.10;;;;;;5133861;27;20289;-58
2022/04/01 10:19:58;;;;;;;33.13;11.75;;;3.80;87.30;;;;;;5133801;27;20210;-58
2022/04/01 10:22:27;;;;;;;15.25;8.73;;;3.80;87.10;;;;;;5133909;27;20207;-58
2022/04/01 10:25:05;;;;;;;26.17;10.68;;;3.70;87.20;;;;;;5133537;27;20653;-56
2022/04/01 10:27:37;;;;;;;47.60;12.43;;;3.80;87.40;;;;;;5132362;27;20230;-58
2022/04/01 10:30:06;;;;;;;14.35;8.40;;;3.80;87.00;;;;;;5133700;27;20239;-57
2022/04/01 10:32:38;;;;;;;36.15;10.98;;;3.70;86.80;;;;;;5133719;27;20277;-59
2022/04/01 10:35:08;;;;;;;14.23;8.38;;;3.70;87.00;;;;;;5133729;27;20783;-57
2022/04/01 10:37:36;;;;;;;20.88;8.25;;;3.70;86.80;;;;;;5133587;27;20226;-59
2022/04/01 10:40:09;;;;;;;14.25;8.57;;;3.60;86.90;;;;;;5133461;27;20657;-58
2022/04/01 10:42:38;;;;;;;17.92;7.65;;;3.50;87.40;;;;;;5132296;27;20203;-57
2022/04/01 10:45:09;;;;;;;16.50;7.85;;;3.50;87.60;;;;;;5133517;27;20209;-58
2022/04/01 10:53:33;;;;;;;44.55;9.68;;;3.70;87.40;;;;;;5133321;27;20243;-57
2022/04/01 10:56:29;;;;;;;21.73;7.93;;;3.70;87.10;;;;;;5132263;27;20237;-57
2022/04/01 10:59:04;;;;;;;50.97;10.48;;;3.70;87.10;;;;;;5133599;27;20282;-59
2022/04/01 11:01:32;;;;;;;10.73;6.30;;;3.70;86.90;;;;;;5134470;27;20202;-58
2022/04/01 11:04:03;;;;;;;25.98;6.70;;;3.70;87.00;;;;;;5137520;27;20322;-57
2022/04/01 11:06:30;;;;;;;22.40;8.10;;;3.80;86.80;;;;;;5137325;27;20203;-58
2022/04/01 11:08:57;;;;;;;11.20;5.43;;;3.60;86.60;;;;;;5136772;27;20262;-57
2022/04/01 11:11:24;;;;;;;11.98;7.00;;;3.60;87.10;;;;;;5135991;27;20679;-58
2022/04/01 11:14:08;;;;;;;18.25;6.85;;;3.60;87.10;;;;;;5137436;27;20209;-57
2022/04/01 11:16:49;;;;;;;85.22;14.38;;;3.60;87.30;;;;;;5137177;27;20198;-56
2022/04/01 11:19:17;;;;;;;30.75;6.50;;;3.60;86.80;;;;;;5136853;27;20210;-57
2022/04/01 11:21:46;;;;;;;13.85;6.55;;;3.60;87.00;;;;;;5137085;27;20305;-54
2022/04/01 11:24:33;;;;;;;31.40;8.90;;;3.70;87.00;;;;;;5136881;27;20209;-57
2022/04/01 11:27:07;;;;;;;9.23;6.60;;;3.70;86.90;;;;;;5135590;27;20238;-56
2022/04/01 11:29:35;;;;;;;16.52;6.70;;;3.70;86.70;;;;;;5136704;27;20707;-57
2022/04/01 11:32:05;;;;;;;31.42;9.02;;;3.70;86.70;;;;;;5136973;27;20213;-58
2022/04/01 11:34:32;;;;;;;35.33;8.20;;;3.70;86.70;;;;;;5136846;27;20223;-57
2022/04/01 11:37:02;;;;;;;6.05;5.03;;;3.60;86.80;;;;;;5136930;27;20563;-56
2022/04/01 11:39:29;;;;;;;12.50;6.32;;;3.70;86.90;;;;;;5136675;27;20198;-57
2022/04/01 11:41:56;;;;;;;18.90;7.15;;;3.70;87.30;;;;;;5135438;27;20223;-58
2022/04/01 11:44:24;;;;;;;5.88;5.00;;;3.70;87.10;;;;;;5136503;27;20204;-58
2022/04/01 11:46:55;;;;;;;7.95;6.35;;;3.70;86.80;;;;;;5136583;27;20245;-57
2022/04/01 11:49:26;;;;;;;7.72;5.55;;;3.60;86.90;;;;;;5136652;27;20241;-57
2022/04/01 11:51:53;;;;;;;14.77;6.63;;;3.60;86.70;;;;;;5136503;27;20194;-57
2022/04/01 11:54:21;;;;;;;9.30;6.50;;;3.60;87.10;;;;;;5136248;27;20207;-56
2022/04/01 11:56:52;;;;;;;12.18;7.20;;;3.50;87.10;;;;;;5135058;27;20226;-57
2022/04/01 11:59:19;;;;;;;9.68;6.72;;;3.60;87.50;;;;;;5136398;27;20199;-57
2022/04/01 12:01:58;;;;;;;9.05;7.10;;;3.60;87.20;;;;;;5136391;27;20649;-59
2022/04/01 12:04:32;;;;;;;8.20;6.25;;;3.60;87.20;;;;;;5136204;27;20595;-57
2022/04/01 12:09:45;;;;;;;8.35;6.63;;;3.50;87.50;;;;;;5136058;27;20201;-58
2022/04/01 12:12:12;;;;;;;9.30;6.80;;;3.50;87.60;;;;;;5134736;27;20741;-57
2022/04/01 12:14:40;;;;;;;11.45;7.53;;;3.50;87.60;;;;;;5136217;27;20202;-57
2022/04/01 12:17:10;;;;;;;11.02;7.30;;;3.50;87.40;;;;;;5136045;27;20210;-58
2022/04/01 12:19:38;;;;;;;8.13;6.50;;;3.50;87.40;;;;;;5135798;27;20692;-58
2022/04/01 12:22:06;;;;;;;10.32;7.00;;;3.40;87.60;;;;;;5135891;27;20194;-56
2022/04/01 12:24:35;;;;;;;11.15;7.20;;;3.50;87.90;;;;;;5135789;27;20199;-57
2022/04/01 12:27:05;;;;;;;11.02;7.20;;;3.50;87.90;;;;;;5134604;27;20299;-58
2022/04/01 12:29:32;;;;;;;10.35;7.20;;;3.40;88.10;;;;;;5135470;27;20767;-57
2022/04/01 12:32:02;;;;;;;10.35;6.45;;;3.40;88.30;;;;;;5135723;27;20289;-57
2022/04/01 12:34:30;;;;;;;11.10;8.02;;;3.40;88.40;;;;;;5135468;27;20238;-59
2022/04/01 12:37:01;;;;;;;11.00;7.32;;;3.20;88.50;;;;;;5135785;27;20199;-57
2022/04/01 12:39:29;;;;;;;10.90;7.82;;;3.20;88.50;;;;;;5135602;27;20608;-58
2022/04/01 12:41:57;;;;;;;12.70;8.23;;;3.20;89.10;;;;;;5134341;27;20205;-57
2022/04/01 12:44:26;;;;;;;11.32;8.25;;;3.40;88.80;;;;;;5135569;27;20205;-57
2022/04/01 12:46:55;;;;;;;11.50;7.88;;;3.40;88.20;;;;;;5135356;27;20210;-58
2022/04/01 12:49:24;;;;;;;12.13;8.25;;;3.40;88.70;;;;;;5135215;27;20230;-57
2022/04/01 12:51:54;;;;;;;11.02;8.27;;;3.50;88.60;;;;;;5135455;27;20217;-58
2022/04/01 12:54:33;;;;;;;13.25;8.70;;;3.60;87.90;;;;;;5135402;27;20214;-57
2022/04/01 12:57:01;;;;;;;11.18;7.88;;;3.60;87.40;;;;;;5133935;27;20195;-56
2022/04/01 12:59:33;;;;;;;13.57;8.88;;;3.60;87.20;;;;;;5135096;27;20267;-57
2022/04/01 13:02:02;;;;;;;12.35;8.25;;;3.60;87.30;;;;;;5135157;27;20199;-59